createdAt,value
2022-08-19T00:01:59.358Z,17.43
2022-08-19T00:04:33.778Z,17.42
2022-08-19T00:07:00.937Z,17.46
2022-08-19T00:09:28.772Z,17.45
2022-08-19T00:11:57.246Z,17.49
2022-08-19T00:14:25.703Z,17.42
2022-08-19T00:16:55.139Z,17.37
2022-08-19T00:19:22.827Z,17.36
2022-08-19T00:21:49.284Z,17.35
2022-08-19T00:24:16.178Z,17.34
2022-08-19T00:26:44.575Z,17.36
2022-08-19T00:29:13.167Z,17.38
2022-08-19T00:31:40.461Z,17.36
2022-08-19T00:34:06.912Z,17.34
2022-08-19T00:36:33.973Z,17.34
2022-08-19T00:39:00.618Z,17.38
2022-08-19T00:41:27.494Z,17.38
2022-08-19T00:44:00.173Z,17.36
2022-08-19T00:46:27.694Z,17.34
2022-08-19T00:48:55.585Z,17.30
2022-08-19T00:51:23.091Z,17.32
2022-08-19T00:53:49.568Z,17.33
2022-08-19T00:56:16.467Z,17.25
2022-08-19T00:58:42.931Z,17.19
2022-08-19T01:01:09.329Z,17.23
2022-08-19T01:03:58.047Z,17.27
2022-08-19T01:06:26.278Z,17.28
2022-08-19T01:08:53.123Z,17.31
2022-08-19T01:11:19.567Z,17.29
2022-08-19T01:13:49.986Z,17.30
2022-08-19T01:16:20.214Z,17.30
2022-08-19T01:18:47.066Z,17.27
2022-08-19T01:21:22.860Z,17.36
2022-08-19T01:23:49.499Z,17.36
2022-08-19T01:26:20.544Z,17.28
2022-08-19T01:28:49.563Z,17.28
2022-08-19T01:31:26.855Z,17.31
2022-08-19T01:33:56.958Z,17.27
2022-08-19T01:36:29.639Z,17.29
2022-08-19T01:38:57.196Z,17.28
2022-08-19T01:41:24.349Z,17.29
2022-08-19T01:44:03.266Z,17.30
2022-08-19T01:46:39.805Z,17.34
2022-08-19T01:49:07.172Z,17.35
2022-08-19T01:51:39.732Z,17.29
2022-08-19T01:54:10.686Z,17.30
2022-08-19T01:56:37.213Z,17.33
2022-08-19T01:59:10.993Z,17.34
2022-08-19T02:01:37.714Z,17.33
2022-08-19T02:04:04.165Z,17.33
2022-08-19T02:06:30.653Z,17.32
2022-08-19T02:08:57.809Z,17.34
2022-08-19T02:11:34.861Z,17.38
2022-08-19T02:14:02.914Z,17.35
2022-08-19T02:16:29.762Z,17.28
2022-08-19T02:18:56.215Z,17.32
2022-08-19T02:21:23.471Z,17.36
2022-08-19T02:23:51.009Z,17.38
2022-08-19T02:26:18.215Z,17.40
2022-08-19T02:28:44.655Z,17.38
2022-08-19T02:31:15.838Z,17.38
2022-08-19T02:33:43.040Z,17.41
2022-08-19T02:36:10.786Z,17.30
2022-08-19T02:38:38.035Z,17.32
2022-08-19T02:41:12.036Z,17.31
2022-08-19T02:43:39.590Z,17.31
2022-08-19T02:46:16.680Z,17.28
2022-08-19T02:48:43.127Z,17.29
2022-08-19T02:51:09.475Z,17.33
2022-08-19T02:53:35.988Z,17.28
2022-08-19T02:56:02.417Z,17.28
2022-08-19T02:58:28.936Z,17.30
2022-08-19T03:00:56.901Z,17.28
2022-08-19T03:03:24.300Z,17.27
2022-08-19T03:05:56.889Z,17.24
2022-08-19T03:08:26.697Z,17.30
2022-08-19T03:10:54.206Z,17.30
2022-08-19T03:13:20.861Z,17.27
2022-08-19T03:15:49.050Z,17.32
2022-08-19T03:18:17.933Z,17.32
2022-08-19T03:20:53.763Z,17.23
2022-08-19T03:23:20.296Z,17.25
2022-08-19T03:26:03.926Z,17.31
2022-08-19T03:28:34.948Z,17.35
2022-08-19T03:31:41.481Z,17.42
2022-08-19T03:33:54.120Z,17.34
2022-08-19T03:36:23.884Z,17.31
2022-08-19T03:38:59.738Z,17.28
2022-08-19T03:41:45.830Z,17.17
2022-08-19T03:44:24.075Z,17.23
2022-08-19T03:46:53.899Z,17.28
2022-08-19T03:49:21.270Z,17.33
2022-08-19T03:51:55.202Z,17.29
2022-08-19T03:54:24.176Z,17.34
2022-08-19T03:56:52.547Z,17.36
2022-08-19T03:59:26.822Z,17.44
2022-08-19T04:01:56.135Z,17.36
2022-08-19T04:04:22.961Z,17.35
2022-08-19T04:06:49.667Z,17.33
2022-08-19T04:09:16.683Z,17.35
2022-08-19T04:11:55.137Z,17.38
2022-08-19T04:14:26.739Z,17.38
2022-08-19T04:16:53.887Z,17.38
2022-08-19T04:19:20.985Z,17.30
2022-08-19T04:21:50.749Z,17.35
2022-08-19T04:24:18.288Z,17.41
2022-08-19T04:26:45.513Z,17.19
2022-08-19T04:29:16.493Z,17.26
2022-08-19T04:31:45.223Z,17.34
2022-08-19T04:34:13.775Z,17.41
2022-08-19T04:36:42.510Z,17.36
2022-08-19T04:39:17.939Z,17.41
2022-08-19T04:42:04.358Z,17.38
2022-08-19T04:44:36.078Z,17.30
2022-08-19T04:47:12.761Z,17.29
2022-08-19T04:49:39.152Z,17.33
2022-08-19T04:52:06.252Z,17.36
2022-08-19T04:54:38.537Z,17.37
2022-08-19T04:57:09.416Z,17.37
2022-08-19T04:59:37.653Z,17.35
2022-08-19T05:02:05.570Z,17.38
2022-08-19T05:04:34.474Z,17.38
2022-08-19T05:07:01.988Z,17.35
2022-08-19T05:09:52.495Z,17.34
2022-08-19T05:12:17.766Z,17.37
2022-08-19T05:14:46.463Z,17.33
2022-08-19T05:17:31.241Z,17.37
2022-08-19T05:20:17.180Z,17.40
2022-08-19T05:22:46.175Z,17.43
2022-08-19T05:25:15.379Z,17.48
2022-08-19T05:27:43.284Z,17.48
2022-08-19T05:30:11.541Z,17.47
2022-08-19T05:32:38.723Z,17.43
2022-08-19T05:35:06.628Z,17.47
2022-08-19T05:37:34.580Z,17.52
2022-08-19T05:40:01.123Z,17.49
2022-08-19T05:42:27.636Z,17.51
2022-08-19T05:44:54.178Z,17.54
2022-08-19T05:47:20.998Z,17.50
2022-08-19T05:49:50.819Z,17.48
2022-08-19T05:52:18.833Z,17.50
2022-08-19T05:54:51.435Z,17.49
2022-08-19T05:57:20.065Z,17.44
2022-08-19T05:59:53.321Z,17.42
2022-08-19T06:02:31.453Z,17.50
2022-08-19T06:04:58.098Z,17.55
2022-08-19T06:07:24.624Z,17.59
2022-08-19T06:10:00.682Z,17.59
2022-08-19T06:12:35.511Z,17.58
2022-08-19T06:15:06.566Z,17.63
2022-08-19T06:17:35.544Z,17.68
2022-08-19T06:20:04.504Z,17.67
2022-08-19T06:22:31.080Z,17.56
2022-08-19T06:24:57.590Z,17.66
2022-08-19T06:27:24.179Z,17.66
2022-08-19T06:29:50.672Z,17.44
2022-08-19T06:32:19.488Z,17.51
2022-08-19T06:34:46.452Z,17.57
2022-08-19T06:37:13.161Z,17.65
2022-08-19T06:39:41.686Z,17.65
2022-08-19T06:42:12.202Z,17.66
2022-08-19T06:44:42.553Z,17.66
2022-08-19T06:47:14.597Z,17.71
2022-08-19T06:49:49.517Z,17.71
2022-08-19T06:52:16.871Z,17.73
2022-08-19T06:54:55.763Z,17.78
2022-08-19T06:57:25.156Z,17.77
2022-08-19T06:59:52.499Z,17.81
2022-08-19T07:02:20.138Z,17.91
2022-08-19T07:04:47.071Z,17.97
2022-08-19T07:07:20.327Z,18.00
2022-08-19T07:09:59.858Z,18.08
2022-08-19T07:12:35.639Z,18.17
2022-08-19T07:15:04.842Z,18.25
2022-08-19T07:17:31.597Z,18.31
2022-08-19T07:20:07.019Z,18.29
2022-08-19T07:22:36.447Z,18.29
2022-08-19T07:25:04.587Z,18.32
2022-08-19T07:27:31.070Z,18.32
2022-08-19T07:30:00.836Z,18.41
2022-08-19T07:32:27.671Z,18.31
2022-08-19T07:34:55.355Z,18.47
2022-08-19T07:37:24.160Z,18.51
2022-08-19T07:39:50.758Z,18.64
2022-08-19T07:42:21.721Z,18.52
2022-08-19T07:44:50.002Z,18.53
2022-08-19T07:47:47.845Z,18.67
2022-08-19T07:50:09.571Z,18.65
2022-08-19T07:52:39.471Z,18.64
2022-08-19T07:55:13.640Z,18.64
2022-08-19T07:57:54.788Z,18.49
2022-08-19T08:00:23.797Z,18.56
2022-08-19T08:02:52.185Z,18.54
2022-08-19T08:05:43.382Z,18.48
2022-08-19T08:08:44.123Z,18.49
2022-08-19T08:11:15.808Z,18.45
2022-08-19T08:13:44.558Z,18.46
2022-08-19T08:16:14.130Z,18.51
2022-08-19T08:18:43.136Z,18.53
2022-08-19T08:21:10.009Z,18.57
2022-08-19T08:23:36.790Z,18.67
2022-08-19T08:26:06.394Z,18.68
2022-08-19T08:28:33.107Z,18.70
2022-08-19T08:30:59.624Z,18.70
2022-08-19T08:33:33.340Z,18.80
2022-08-19T08:36:03.903Z,18.82
2022-08-19T08:38:38.740Z,18.80
2022-08-19T08:41:19.939Z,18.80
2022-08-19T08:43:48.521Z,18.84
2022-08-19T08:46:31.390Z,18.81
2022-08-19T08:49:02.776Z,18.96
2022-08-19T08:51:44.049Z,18.99
2022-08-19T08:54:18.717Z,19.08
2022-08-19T08:56:49.360Z,19.16
2022-08-19T08:59:31.688Z,19.11
2022-08-19T09:01:58.210Z,19.23
2022-08-19T09:04:25.038Z,19.26
2022-08-19T09:07:34.777Z,19.25
2022-08-19T09:10:26.016Z,19.22
2022-08-19T09:13:09.157Z,19.18
2022-08-19T09:15:45.351Z,19.18
2022-08-19T09:18:18.972Z,18.99
2022-08-19T09:20:48.251Z,18.96
2022-08-19T09:23:15.612Z,18.95
2022-08-19T09:25:42.172Z,19.01
2022-08-19T09:28:15.073Z,19.04
2022-08-19T09:30:49.416Z,18.96
2022-08-19T09:33:16.975Z,19.01
2022-08-19T09:35:49.766Z,19.20
2022-08-19T09:38:21.543Z,19.27
2022-08-19T09:40:48.051Z,19.39
2022-08-19T09:43:14.502Z,19.56
2022-08-19T09:45:41.524Z,19.73
2022-08-19T09:48:09.481Z,19.86
2022-08-19T09:50:39.452Z,19.92
2022-08-19T09:53:18.815Z,20.17
2022-08-19T09:55:45.365Z,20.31
2022-08-19T09:58:12.030Z,20.43
2022-08-19T10:00:39.184Z,20.46
2022-08-19T10:03:05.625Z,20.45
2022-08-19T10:05:48.992Z,20.24
2022-08-19T10:08:26.622Z,20.16
2022-08-19T10:10:54.412Z,20.14
2022-08-19T10:13:25.812Z,20.08
2022-08-19T10:15:55.199Z,19.93
2022-08-19T10:18:24.437Z,20.00
2022-08-19T10:20:53.207Z,20.01
2022-08-19T10:23:21.774Z,20.02
2022-08-19T10:25:48.956Z,20.18
2022-08-19T10:28:15.519Z,20.28
2022-08-19T10:30:42.769Z,20.43
2022-08-19T10:33:11.049Z,20.41
2022-08-19T10:35:56.377Z,20.43
2022-08-19T10:38:31.433Z,20.66
2022-08-19T10:40:59.108Z,20.58
2022-08-19T10:43:25.861Z,20.69
2022-08-19T10:46:00.148Z,20.75
2022-08-19T10:48:26.687Z,20.89
2022-08-19T10:51:22.565Z,20.86
2022-08-19T10:53:50.674Z,21.00
2022-08-19T10:56:36.952Z,21.03
2022-08-19T10:59:05.134Z,21.01
2022-08-19T11:01:34.211Z,21.08
2022-08-19T11:04:03.011Z,21.12
2022-08-19T11:06:30.255Z,21.17
2022-08-19T11:08:57.045Z,21.05
2022-08-19T11:11:23.871Z,21.15
2022-08-19T11:13:51.167Z,21.17
2022-08-19T11:16:22.420Z,21.21
2022-08-19T11:18:51.819Z,21.47
2022-08-19T11:21:22.704Z,21.27
2022-08-19T11:23:52.617Z,21.43
2022-08-19T11:26:20.647Z,21.38
2022-08-19T11:28:48.007Z,21.30
2022-08-19T11:31:19.803Z,21.46
2022-08-19T11:33:47.987Z,21.49
2022-08-19T11:36:15.337Z,21.46
2022-08-19T11:38:42.602Z,21.53
2022-08-19T11:41:09.085Z,21.65
2022-08-19T11:43:37.719Z,21.74
2022-08-19T11:46:12.975Z,21.70
2022-08-19T11:48:40.232Z,21.80
2022-08-19T11:51:10.235Z,21.57
2022-08-19T11:53:37.824Z,21.83
2022-08-19T11:56:05.676Z,21.40
2022-08-19T11:58:32.492Z,21.67
2022-08-19T12:00:58.947Z,21.73
2022-08-19T12:03:25.808Z,22.00
2022-08-19T12:05:52.813Z,22.39
2022-08-19T12:08:19.924Z,22.61
2022-08-19T12:10:46.629Z,22.85
2022-08-19T12:13:19.524Z,23.02
2022-08-19T12:15:48.291Z,22.92
2022-08-19T12:18:15.319Z,23.11
2022-08-19T12:20:43.807Z,23.33
2022-08-19T12:23:11.409Z,23.18
2022-08-19T12:25:44.056Z,23.00
2022-08-19T12:28:10.551Z,23.03
2022-08-19T12:30:39.052Z,23.13
2022-08-19T12:33:05.495Z,23.26
2022-08-19T12:35:32.739Z,23.56
2022-08-19T12:37:59.904Z,23.19
2022-08-19T12:40:26.756Z,23.36
2022-08-19T12:42:54.299Z,23.92
2022-08-19T12:45:20.897Z,23.64
2022-08-19T12:47:47.739Z,23.92
2022-08-19T12:50:16.498Z,24.55
2022-08-19T12:52:43.271Z,24.83
2022-08-19T12:55:10.507Z,24.93
2022-08-19T12:57:36.984Z,24.91
2022-08-19T13:00:12.269Z,25.09
2022-08-19T13:02:45.334Z,25.11
2022-08-19T13:05:16.679Z,24.93
2022-08-19T13:07:46.497Z,24.78
2022-08-19T13:10:17.919Z,24.16
2022-08-19T13:12:46.045Z,23.99
2022-08-19T13:15:15.198Z,24.48
2022-08-19T13:17:42.317Z,25.05
2022-08-19T13:20:10.448Z,24.69
2022-08-19T13:22:37.689Z,24.68
2022-08-19T13:25:07.295Z,24.61
2022-08-19T13:27:33.999Z,24.57
2022-08-19T13:30:19.728Z,24.77
2022-08-19T13:33:04.604Z,24.69
2022-08-19T13:35:31.087Z,24.52
2022-08-19T13:37:57.503Z,25.00
2022-08-19T13:40:27.161Z,24.78
2022-08-19T13:42:55.758Z,24.66
2022-08-19T13:45:25.202Z,24.75
2022-08-19T13:47:58.955Z,24.92
2022-08-19T13:50:32.115Z,25.24
2022-08-19T13:52:59.181Z,25.29
2022-08-19T13:55:27.621Z,25.26
2022-08-19T13:57:56.888Z,24.96
2022-08-19T14:00:27.120Z,24.89
2022-08-19T14:02:56.661Z,24.66
2022-08-19T14:05:23.950Z,24.66
2022-08-19T14:07:50.748Z,24.56
2022-08-19T14:10:18.578Z,24.65
2022-08-19T14:12:45.349Z,24.59
2022-08-19T14:15:13.427Z,24.28
2022-08-19T14:17:41.912Z,24.44
2022-08-19T14:20:11.163Z,24.44
2022-08-19T14:22:44.912Z,24.50
2022-08-19T14:25:15.314Z,24.50
2022-08-19T14:27:42.450Z,24.38
2022-08-19T14:30:12.329Z,24.37
2022-08-19T14:32:38.843Z,24.58
2022-08-19T14:35:08.167Z,24.52
2022-08-19T14:37:45.214Z,24.66
2022-08-19T14:40:15.389Z,24.64
2022-08-19T14:42:42.789Z,24.48
2022-08-19T14:45:11.378Z,24.50
2022-08-19T14:47:39.757Z,24.39
2022-08-19T14:50:18.278Z,24.10
2022-08-19T14:52:49.366Z,24.11
2022-08-19T14:55:18.038Z,24.07
2022-08-19T14:57:45.649Z,24.21
2022-08-19T15:00:14.073Z,24.19
2022-08-19T15:02:45.175Z,24.39
2022-08-19T15:05:13.743Z,24.08
2022-08-19T15:07:41.760Z,24.12
2022-08-19T15:10:10.553Z,24.25
2022-08-19T15:12:40.646Z,24.05
2022-08-19T15:15:08.765Z,23.93
2022-08-19T15:17:45.939Z,23.96
2022-08-19T15:20:18.985Z,23.64
2022-08-19T15:22:46.229Z,23.75
2022-08-19T15:25:16.436Z,23.66
2022-08-19T15:27:44.066Z,23.51
2022-08-19T15:30:11.765Z,23.48
2022-08-19T15:32:39.691Z,23.48
2022-08-19T15:35:06.975Z,23.57
2022-08-19T15:37:37.117Z,23.43
2022-08-19T15:40:07.380Z,23.36
2022-08-19T15:42:36.172Z,23.29
2022-08-19T15:45:04.693Z,23.28
2022-08-19T15:47:34.724Z,23.15
2022-08-19T15:50:12.196Z,23.22
2022-08-19T15:52:52.621Z,23.20
2022-08-19T15:55:33.275Z,23.14
2022-08-19T15:58:29.207Z,23.01
2022-08-19T16:01:17.846Z,23.14
2022-08-19T16:04:11.152Z,23.09
2022-08-19T16:06:46.650Z,23.04
2022-08-19T16:09:14.203Z,23.11
2022-08-19T16:11:46.669Z,23.19
2022-08-19T16:14:15.518Z,23.03
2022-08-19T16:16:42.248Z,23.10
2022-08-19T16:19:10.257Z,23.07
2022-08-19T16:21:41.916Z,23.06
2022-08-19T16:24:12.868Z,23.03
2022-08-19T16:26:41.242Z,22.98
2022-08-19T16:29:13.097Z,22.99
2022-08-19T16:31:44.656Z,22.94
2022-08-19T16:34:12.306Z,22.94
2022-08-19T16:36:43.342Z,23.12
2022-08-19T16:39:11.421Z,23.48
2022-08-19T16:41:39.818Z,23.53
2022-08-19T16:44:08.468Z,23.68
2022-08-19T16:46:37.096Z,23.85
2022-08-19T16:49:05.142Z,23.61
2022-08-19T16:51:33.663Z,23.53
2022-08-19T16:54:01.144Z,23.49
2022-08-19T16:56:28.849Z,23.49
2022-08-19T16:58:55.861Z,23.40
2022-08-19T17:01:22.454Z,23.39
2022-08-19T17:03:51.400Z,23.45
2022-08-19T17:06:21.204Z,23.38
2022-08-19T17:08:54.221Z,23.42
2022-08-19T17:11:24.325Z,23.44
2022-08-19T17:13:51.342Z,23.32
2022-08-19T17:16:21.925Z,23.32
2022-08-19T17:18:52.184Z,23.24
2022-08-19T17:21:27.318Z,23.15
2022-08-19T17:23:55.708Z,23.05
2022-08-19T17:26:23.363Z,22.95
2022-08-19T17:28:52.364Z,22.87
2022-08-19T17:31:22.982Z,22.72
2022-08-19T17:33:50.553Z,22.68
2022-08-19T17:36:26.315Z,22.64
2022-08-19T17:38:55.187Z,22.66
2022-08-19T17:41:24.112Z,22.53
2022-08-19T17:43:50.802Z,22.51
2022-08-19T17:46:18.858Z,22.45
2022-08-19T17:48:55.056Z,22.68
2022-08-19T17:51:32.317Z,22.63
2022-08-19T17:53:59.715Z,22.73
2022-08-19T17:56:28.635Z,22.73
2022-08-19T17:59:00.698Z,22.66
2022-08-19T18:01:43.884Z,22.63
2022-08-19T18:04:17.196Z,22.62
2022-08-19T18:06:46.562Z,22.49
2022-08-19T18:09:23.646Z,22.52
2022-08-19T18:11:52.605Z,22.45
2022-08-19T18:14:32.241Z,22.38
2022-08-19T18:17:09.072Z,22.09
2022-08-19T18:19:43.090Z,21.98
2022-08-19T18:22:23.148Z,21.89
2022-08-19T18:24:49.936Z,21.83
2022-08-19T18:27:16.464Z,21.99
2022-08-19T18:29:43.370Z,21.70
2022-08-19T18:32:13.420Z,21.65
2022-08-19T18:34:43.639Z,21.48
2022-08-19T18:37:10.942Z,21.38
2022-08-19T18:39:55.925Z,21.22
2022-08-19T18:42:41.067Z,21.10
2022-08-19T18:45:26.660Z,21.07
2022-08-19T18:48:18.489Z,21.21
2022-08-19T18:50:58.706Z,20.92
2022-08-19T18:53:28.736Z,20.63
2022-08-19T18:55:55.823Z,20.60
2022-08-19T18:58:33.900Z,20.48
2022-08-19T19:01:12.997Z,20.30
2022-08-19T19:03:49.408Z,20.24
2022-08-19T19:06:19.802Z,20.10
2022-08-19T19:08:47.266Z,20.00
2022-08-19T19:11:20.013Z,19.99
2022-08-19T19:13:46.960Z,19.96
2022-08-19T19:16:13.429Z,19.84
2022-08-19T19:18:39.963Z,19.68
2022-08-19T19:21:08.099Z,19.65
2022-08-19T19:23:34.688Z,19.60
2022-08-19T19:26:01.629Z,19.54
2022-08-19T19:28:29.267Z,19.61
2022-08-19T19:31:00.331Z,19.55
2022-08-19T19:33:27.944Z,19.56
2022-08-19T19:35:54.808Z,19.50
2022-08-19T19:38:21.300Z,19.30
2022-08-19T19:40:47.904Z,19.26
2022-08-19T19:43:16.731Z,19.33
2022-08-19T19:45:43.404Z,19.13
2022-08-19T19:48:13.659Z,19.14
2022-08-19T19:50:40.757Z,19.12
2022-08-19T19:53:07.275Z,18.98
2022-08-19T19:55:33.948Z,18.96
2022-08-19T19:58:00.412Z,18.75
2022-08-19T20:00:26.907Z,18.77
2022-08-19T20:02:56.258Z,18.62
2022-08-19T20:05:23.965Z,18.67
2022-08-19T20:08:11.133Z,18.69
2022-08-19T20:10:39.912Z,18.62
2022-08-19T20:13:07.654Z,18.53
2022-08-19T20:15:37.925Z,18.50
2022-08-19T20:18:06.955Z,18.50
2022-08-19T20:20:34.217Z,18.55
2022-08-19T20:23:00.918Z,18.42
2022-08-19T20:25:27.471Z,18.41
2022-08-19T20:27:54.420Z,18.34
2022-08-19T20:30:22.024Z,18.35
2022-08-19T20:32:50.403Z,18.32
2022-08-19T20:35:18.955Z,18.28
2022-08-19T20:37:45.437Z,18.25
2022-08-19T20:40:13.384Z,18.24
2022-08-19T20:42:42.367Z,18.27
2022-08-19T20:45:21.537Z,18.27
2022-08-19T20:47:57.945Z,18.25
2022-08-19T20:50:24.399Z,18.36
2022-08-19T20:52:53.686Z,18.29
2022-08-19T20:55:21.904Z,18.30
2022-08-19T20:57:49.031Z,18.36
2022-08-19T21:00:15.948Z,18.37
2022-08-19T21:02:42.419Z,18.34
2022-08-19T21:05:08.977Z,18.33
2022-08-19T21:07:39.254Z,18.38
2022-08-19T21:10:07.130Z,18.36
2022-08-19T21:12:33.682Z,18.34
2022-08-19T21:15:00.250Z,18.32
2022-08-19T21:17:26.995Z,18.36
2022-08-19T21:19:53.466Z,18.34
2022-08-19T21:22:19.819Z,18.32
2022-08-19T21:24:46.294Z,18.32
2022-08-19T21:27:12.627Z,18.35
2022-08-19T21:29:40.433Z,18.30
2022-08-19T21:32:07.798Z,18.24
2022-08-19T21:34:34.335Z,18.23
2022-08-19T21:37:00.782Z,18.18
2022-08-19T21:39:27.159Z,18.20
2022-08-19T21:41:54.325Z,18.20
2022-08-19T21:44:20.900Z,18.14
2022-08-19T21:46:50.726Z,18.13
2022-08-19T21:49:17.422Z,18.11
2022-08-19T21:51:44.100Z,17.99
2022-08-19T21:54:14.200Z,18.01
2022-08-19T21:56:41.327Z,17.99
2022-08-19T21:59:08.671Z,17.98
2022-08-19T22:01:35.720Z,17.97
2022-08-19T22:04:02.399Z,17.94
2022-08-19T22:06:28.943Z,17.90
2022-08-19T22:08:55.486Z,17.91
2022-08-19T22:11:23.926Z,17.89
2022-08-19T22:13:53.727Z,17.82
2022-08-19T22:16:20.771Z,17.85
2022-08-19T22:18:50.546Z,17.81
2022-08-19T22:21:31.385Z,17.81
2022-08-19T22:24:05.991Z,17.79
2022-08-19T22:26:32.435Z,17.78
2022-08-19T22:29:00.647Z,17.77
2022-08-19T22:31:28.619Z,17.67
2022-08-19T22:33:55.743Z,17.62
2022-08-19T22:36:22.289Z,17.58
2022-08-19T22:38:48.756Z,17.48
2022-08-19T22:41:16.193Z,17.45
2022-08-19T22:43:43.436Z,17.42
2022-08-19T22:46:16.970Z,17.44
2022-08-19T22:48:43.962Z,17.42
2022-08-19T22:51:28.910Z,17.47
2022-08-19T22:53:57.140Z,17.42
2022-08-19T22:56:23.606Z,17.47
2022-08-19T22:58:52.761Z,17.41
2022-08-19T23:01:27.201Z,17.40
2022-08-19T23:03:56.729Z,17.37
2022-08-19T23:06:23.187Z,17.40
2022-08-19T23:08:56.327Z,17.25
2022-08-19T23:11:23.035Z,17.18
2022-08-19T23:13:49.496Z,17.16
2022-08-19T23:16:15.935Z,17.14
2022-08-19T23:18:42.604Z,17.16
2022-08-19T23:21:09.494Z,17.17
2022-08-19T23:23:37.905Z,17.13
2022-08-19T23:26:06.049Z,17.06
2022-08-19T23:28:56.946Z,16.99
2022-08-19T23:31:26.801Z,17.01
2022-08-19T23:33:55.371Z,17.02
2022-08-19T23:36:23.219Z,17.05
2022-08-19T23:38:52.219Z,16.99
2022-08-19T23:41:20.644Z,16.92
2022-08-19T23:43:47.601Z,16.90
2022-08-19T23:46:27.450Z,16.91
2022-08-19T23:48:55.628Z,16.91
2022-08-19T23:51:22.126Z,16.85
2022-08-19T23:53:48.471Z,16.89
2022-08-19T23:56:14.923Z,16.89
2022-08-19T23:58:41.340Z,16.91
